Time;durP1;ratioP1;P1;durP2;ratioP2;P2;SDS_P1;SDS_P2;PMS_P1;PMS_P2;Temp;Humidity;BMP_temperature;BMP_pressure;BME280_temperature;BME280_humidity;BME280_pressure;Samples;Min_cycle;Max_cycle;Signal;HPM_P1;HPM_P2
2022/09/13 00:00:10;;;;;;;;;;;;;;;7.33;100.00;98758.69;2204475;80;20109;-57
2022/09/13 00:03:14;;;;;;;;;;;;;;;7.29;100.00;98762.73;2172544;80;20089;-57
2022/09/13 00:06:15;;;;;;;;;;;;;;;7.17;100.00;98763.78;2202990;80;20108;-57
2022/09/13 00:09:17;;;;;;;;;;;;;;;7.14;100.00;98762.62;2206569;79;20403;-58
2022/09/13 00:12:18;;;;;;;;;;;;;;;7.11;100.00;98759.26;2207134;80;20113;-58
2022/09/13 00:15:20;;;;;;;;;;;;;;;7.03;100.00;98762.68;2201266;80;20516;-58
2022/09/13 00:18:21;;;;;;;;;;;;;;;6.96;100.00;98765.66;2190819;80;20100;-58
2022/09/13 00:21:22;;;;;;;;;;;;;;;6.96;100.00;98765.19;2208381;80;20136;-57
2022/09/13 00:24:24;;;;;;;;;;;;;;;7.08;100.00;98773.75;2204374;80;20096;-58
2022/09/13 00:27:26;;;;;;;;;;;;;;;7.04;100.00;98767.42;2204103;80;20097;-58
2022/09/13 00:30:27;;;;;;;;;;;;;;;7.08;100.00;98765.06;2204813;80;20422;-58
2022/09/13 00:33:29;;;;;;;;;;;;;;;6.94;100.00;98764.44;2205298;80;20160;-58
2022/09/13 00:36:30;;;;;;;;;;;;;;;6.93;100.00;98760.96;2203081;80;20112;-58
2022/09/13 00:39:32;;;;;;;;;;;;;;;6.89;100.00;98764.63;2202795;80;20120;-58
2022/09/13 00:42:33;;;;;;;;;;;;;;;6.89;100.00;98759.88;2202886;80;20108;-58
2022/09/13 00:45:35;;;;;;;;;;;;;;;6.80;100.00;98757.25;2203582;80;20418;-58
2022/09/13 00:48:36;;;;;;;;;;;;;;;6.85;100.00;98757.02;2203751;79;20105;-57
2022/09/13 00:51:38;;;;;;;;;;;;;;;6.86;100.00;98749.59;2201553;80;20101;-58
2022/09/13 00:54:40;;;;;;;;;;;;;;;6.78;100.00;98751.28;2202980;80;20097;-58
2022/09/13 00:57:42;;;;;;;;;;;;;;;6.78;100.00;98749.11;2210748;80;20113;-58
2022/09/13 01:00:44;;;;;;;;;;;;;;;6.79;100.00;98745.13;2200515;80;20104;-57
2022/09/13 01:03:46;;;;;;;;;;;;;;;6.74;100.00;98749.25;2181476;79;20187;-57
2022/09/13 01:06:47;;;;;;;;;;;;;;;6.72;100.00;98739.80;2206545;80;20194;-57
2022/09/13 01:09:49;;;;;;;;;;;;;;;6.73;100.00;98744.11;2204933;80;20549;-57
2022/09/13 01:12:52;;;;;;;;;;;;;;;6.56;100.00;98743.58;2208377;80;20114;-58
2022/09/13 01:15:53;;;;;;;;;;;;;;;6.54;100.00;98743.66;2205859;80;20132;-57
2022/09/13 01:18:55;;;;;;;;;;;;;;;6.49;100.00;98736.97;2208210;79;20375;-57
2022/09/13 01:21:56;;;;;;;;;;;;;;;6.41;100.00;98747.28;2205431;80;20096;-57
2022/09/13 01:24:58;;;;;;;;;;;;;;;6.55;100.00;98738.84;2201916;80;20128;-57
2022/09/13 01:28:00;;;;;;;;;;;;;;;6.67;100.00;98741.80;2196350;80;20415;-57
2022/09/13 01:31:01;;;;;;;;;;;;;;;6.62;100.00;98736.77;2202203;79;20125;-57
2022/09/13 01:34:03;;;;;;;;;;;;;;;6.58;100.00;98741.77;2202429;80;20097;-57
2022/09/13 01:37:05;;;;;;;;;;;;;;;6.40;100.00;98748.18;2206001;80;20422;-57
2022/09/13 01:40:06;;;;;;;;;;;;;;;6.20;100.00;98741.26;2208819;80;20106;-57
2022/09/13 01:43:08;;;;;;;;;;;;;;;6.27;100.00;98747.05;2206255;80;20105;-57
2022/09/13 01:46:09;;;;;;;;;;;;;;;6.24;100.00;98744.13;2206816;80;20109;-58
2022/09/13 01:49:11;;;;;;;;;;;;;;;6.30;100.00;98746.08;2195699;80;20089;-57
2022/09/13 01:52:12;;;;;;;;;;;;;;;6.30;100.00;98754.72;2206996;79;20443;-56
2022/09/13 01:55:14;;;;;;;;;;;;;;;6.35;100.00;98741.48;2203269;80;20133;-58
2022/09/13 01:58:16;;;;;;;;;;;;;;;6.30;100.00;98746.08;2206071;80;20104;-57
2022/09/13 02:01:18;;;;;;;;;;;;;;;6.29;100.00;98734.79;2205707;79;20190;-57
2022/09/13 02:04:20;;;;;;;;;;;;;;;6.24;100.00;98728.96;2200968;80;21108;-57
2022/09/13 02:07:23;;;;;;;;;;;;;;;6.40;100.00;98717.39;2201359;80;20097;-58
2022/09/13 02:10:25;;;;;;;;;;;;;;;6.34;100.00;98713.77;2200674;80;20101;-57
2022/09/13 02:13:26;;;;;;;;;;;;;;;6.34;100.00;98709.39;2204406;80;20127;-58
2022/09/13 02:16:28;;;;;;;;;;;;;;;6.40;100.00;98705.66;2204721;80;20155;-57
2022/09/13 02:19:31;;;;;;;;;;;;;;;6.61;100.00;98711.66;2206783;80;20089;-57
2022/09/13 02:22:32;;;;;;;;;;;;;;;6.76;100.00;98711.38;2200260;80;20427;-57
2022/09/13 02:25:34;;;;;;;;;;;;;;;6.62;100.00;98709.41;2202566;80;20109;-58
2022/09/13 02:28:35;;;;;;;;;;;;;;;6.59;100.00;98702.61;2208011;79;20195;-57
2022/09/13 02:31:37;;;;;;;;;;;;;;;6.58;100.00;98698.77;2202024;80;20194;-57
2022/09/13 02:34:38;;;;;;;;;;;;;;;6.49;100.00;98701.31;2200704;80;20113;-57
2022/09/13 02:37:40;;;;;;;;;;;;;;;6.42;100.00;98692.09;2203751;80;20128;-57
2022/09/13 02:40:41;;;;;;;;;;;;;;;6.47;100.00;98694.52;2201359;80;20096;-58
2022/09/13 02:43:44;;;;;;;;;;;;;;;6.41;100.00;98693.03;2203443;80;20426;-57
2022/09/13 02:46:47;;;;;;;;;;;;;;;6.20;100.00;98691.77;2203733;80;20117;-57
2022/09/13 02:49:50;;;;;;;;;;;;;;;6.04;100.00;98689.02;2205539;80;20096;-56
2022/09/13 02:52:52;;;;;;;;;;;;;;;6.02;100.00;98682.18;2202585;80;20206;-57
2022/09/13 02:55:53;;;;;;;;;;;;;;;6.01;100.00;98681.81;2207007;80;20131;-57
2022/09/13 02:58:55;;;;;;;;;;;;;;;5.97;100.00;98688.90;2203953;80;20430;-57
2022/09/13 03:01:57;;;;;;;;;;;;;;;5.94;100.00;98690.31;2201939;80;20144;-57
2022/09/13 03:04:59;;;;;;;;;;;;;;;5.92;100.00;98687.38;2205103;80;20112;-56
2022/09/13 03:08:00;;;;;;;;;;;;;;;5.90;100.00;98688.75;2201719;80;20108;-56
2022/09/13 03:11:02;;;;;;;;;;;;;;;5.85;100.00;98699.38;2204187;80;20104;-57
2022/09/13 03:14:03;;;;;;;;;;;;;;;5.78;100.00;98687.53;2210078;80;20411;-57
2022/09/13 03:17:04;;;;;;;;;;;;;;;5.72;100.00;98683.44;2201844;80;20096;-57
2022/09/13 03:20:08;;;;;;;;;;;;;;;5.84;100.00;98678.62;2201564;81;20096;-57
2022/09/13 03:23:09;;;;;;;;;;;;;;;5.93;100.00;98674.77;2182578;79;20097;-57
2022/09/13 03:26:10;;;;;;;;;;;;;;;5.88;100.00;98683.61;2208014;79;20108;-57
2022/09/13 03:29:12;;;;;;;;;;;;;;;5.95;100.00;98670.31;2197009;80;20104;-58
2022/09/13 03:32:13;;;;;;;;;;;;;;;6.06;100.00;98666.38;2199257;80;20415;-57
2022/09/13 03:35:15;;;;;;;;;;;;;;;6.16;100.00;98665.94;2204675;79;20100;-57
2022/09/13 03:38:17;;;;;;;;;;;;;;;6.05;100.00;98661.23;2205120;80;20152;-57
2022/09/13 03:41:18;;;;;;;;;;;;;;;6.02;100.00;98650.94;2209734;80;20097;-57
2022/09/13 03:44:20;;;;;;;;;;;;;;;6.01;100.00;98649.27;2204135;80;20100;-57
2022/09/13 03:47:22;;;;;;;;;;;;;;;5.89;100.00;98642.83;2204657;80;20399;-57
2022/09/13 03:50:23;;;;;;;;;;;;;;;5.90;100.00;98638.85;2207012;80;20136;-57
2022/09/13 03:53:25;;;;;;;;;;;;;;;5.85;100.00;98641.27;2204625;80;20096;-57
2022/09/13 03:56:26;;;;;;;;;;;;;;;5.84;100.00;98640.88;2200500;80;20100;-57
2022/09/13 03:59:28;;;;;;;;;;;;;;;5.93;100.00;98633.94;2196968;79;20131;-57
2022/09/13 04:02:29;;;;;;;;;;;;;;;5.93;100.00;98635.71;2207350;80;20403;-57
2022/09/13 04:05:33;;;;;;;;;;;;;;;5.79;100.00;98644.13;2201054;80;20099;-57
2022/09/13 04:08:34;;;;;;;;;;;;;;;5.86;100.00;98635.13;2209369;79;20104;-57
2022/09/13 04:11:36;;;;;;;;;;;;;;;5.81;100.00;98630.60;2208901;80;20131;-57
2022/09/13 04:14:38;;;;;;;;;;;;;;;5.81;100.00;98635.81;2202759;79;20139;-57
2022/09/13 04:17:39;;;;;;;;;;;;;;;5.84;100.00;98636.50;2206483;80;20103;-57
2022/09/13 04:20:41;;;;;;;;;;;;;;;5.81;100.00;98635.81;2205466;80;20127;-57
2022/09/13 04:23:42;;;;;;;;;;;;;;;5.86;100.00;98642.50;2205736;80;20178;-57
2022/09/13 04:26:43;;;;;;;;;;;;;;;5.78;100.00;98643.76;2196906;80;20144;-57
2022/09/13 04:29:45;;;;;;;;;;;;;;;5.86;100.00;98650.75;2193894;80;20111;-57
2022/09/13 04:32:46;;;;;;;;;;;;;;;5.84;100.00;98655.19;2203919;80;20111;-56
2022/09/13 04:35:48;;;;;;;;;;;;;;;5.81;100.00;98654.86;2205259;80;20490;-57
2022/09/13 04:38:49;;;;;;;;;;;;;;;5.89;100.00;98660.58;2203378;80;20110;-56
2022/09/13 04:41:53;;;;;;;;;;;;;;;5.85;100.00;98655.12;2204838;80;20948;-56
2022/09/13 04:44:54;;;;;;;;;;;;;;;5.88;100.00;98647.17;2203218;79;20127;-57
2022/09/13 04:47:56;;;;;;;;;;;;;;;6.03;100.00;98646.13;2206950;79;20156;-57
2022/09/13 04:50:58;;;;;;;;;;;;;;;6.00;100.00;98647.56;2206892;80;20100;-57
2022/09/13 04:53:59;;;;;;;;;;;;;;;6.04;100.00;98643.45;2206427;80;20109;-57
2022/09/13 04:57:01;;;;;;;;;;;;;;;6.13;100.00;98639.58;2199039;80;20498;-57
2022/09/13 05:00:02;;;;;;;;;;;;;;;6.20;100.00;98640.98;2211352;80;20231;-57
2022/09/13 05:03:04;;;;;;;;;;;;;;;6.28;100.00;98647.16;2192640;80;20089;-57
2022/09/13 05:06:05;;;;;;;;;;;;;;;6.44;100.00;98639.47;2207569;80;20448;-56
2022/09/13 05:09:07;;;;;;;;;;;;;;;6.62;100.00;98639.52;2202049;80;20105;-56
2022/09/13 05:12:10;;;;;;;;;;;;;;;6.84;100.00;98639.31;2204135;80;20097;-57
2022/09/13 05:15:12;;;;;;;;;;;;;;;7.06;100.00;98631.30;2161716;80;20097;-56
2022/09/13 05:18:13;;;;;;;;;;;;;;;7.20;100.00;98631.45;2206106;80;20399;-56
2022/09/13 05:21:15;;;;;;;;;;;;;;;7.40;100.00;98627.00;2202373;80;20124;-57
2022/09/13 05:24:17;;;;;;;;;;;;;;;7.68;100.00;98632.09;2198033;80;20112;-57
2022/09/13 05:27:18;;;;;;;;;;;;;;;7.93;100.00;98632.92;2202913;80;20427;-57
2022/09/13 05:30:20;;;;;;;;;;;;;;;8.09;100.00;98640.34;2202968;80;20108;-57
2022/09/13 05:33:22;;;;;;;;;;;;;;;8.47;100.00;98635.28;2205863;80;20175;-57
2022/09/13 05:36:23;;;;;;;;;;;;;;;8.71;100.00;98641.39;2209882;80;20097;-58
2022/09/13 05:39:25;;;;;;;;;;;;;;;8.87;100.00;98637.44;2203304;79;20132;-57
2022/09/13 05:42:26;;;;;;;;;;;;;;;9.08;100.00;98648.42;2204090;80;20402;-58
2022/09/13 05:45:28;;;;;;;;;;;;;;;9.32;100.00;98639.17;2205507;80;20109;-57
2022/09/13 05:48:29;;;;;;;;;;;;;;;9.65;100.00;98638.07;2200972;81;20120;-57
2022/09/13 05:51:32;;;;;;;;;;;;;;;9.91;100.00;98643.98;2205943;79;20743;-57
2022/09/13 05:54:35;;;;;;;;;;;;;;;10.00;100.00;98646.89;2197027;80;20103;-57
2022/09/13 05:57:37;;;;;;;;;;;;;;;9.99;100.00;98648.30;2248569;77;20130;-57
2022/09/13 06:00:39;;;;;;;;;;;;;;;9.97;100.00;98652.33;2244394;78;20117;-57
2022/09/13 06:03:41;;;;;;;;;;;;;;;10.37;100.00;98640.70;2196447;80;20509;-58
2022/09/13 06:06:43;;;;;;;;;;;;;;;10.76;100.00;98634.33;2199295;80;20113;-58
2022/09/13 06:09:44;;;;;;;;;;;;;;;11.16;100.00;98636.96;2244018;79;20094;-58
2022/09/13 06:12:46;;;;;;;;;;;;;;;11.44;100.00;98639.87;2246533;78;20420;-58
2022/09/13 06:15:47;;;;;;;;;;;;;;;11.69;100.00;98636.87;2201305;80;20149;-58
2022/09/13 06:18:49;;;;;;;;;;;;;;;11.81;100.00;98648.36;2201734;80;20105;-58
2022/09/13 06:21:50;;;;;;;;;;;;;;;12.22;100.00;98639.86;2244062;77;20111;-58
2022/09/13 06:24:52;;;;;;;;;;;;;;;12.63;100.00;98632.95;2246839;78;20204;-58
2022/09/13 06:27:53;;;;;;;;;;;;;;;13.04;100.00;98633.48;2199301;80;20525;-58
2022/09/13 06:30:54;;;;;;;;;;;;;;;13.51;100.00;98634.38;2200815;80;20113;-58
2022/09/13 06:33:56;;;;;;;;;;;;;;;13.91;100.00;98633.61;2199102;80;20496;-58
2022/09/13 06:36:58;;;;;;;;;;;;;;;14.18;100.00;98624.01;2240839;78;20094;-58
2022/09/13 06:39:59;;;;;;;;;;;;;;;14.43;100.00;98629.47;2231522;78;20105;-57
2022/09/13 06:43:00;;;;;;;;;;;;;;;14.47;100.00;98625.62;2202139;78;20546;-58
2022/09/13 06:46:02;;;;;;;;;;;;;;;14.65;100.00;98623.81;2247250;79;20090;-57
2022/09/13 06:49:04;;;;;;;;;;;;;;;14.81;100.00;98625.58;2247276;78;20094;-58
2022/09/13 06:52:06;;;;;;;;;;;;;;;15.01;100.00;98623.94;2246546;79;20133;-58
2022/09/13 06:55:09;;;;;;;;;;;;;;;15.02;100.00;98619.48;2244837;79;20099;-57
2022/09/13 06:58:11;;;;;;;;;;;;;;;15.13;100.00;98619.90;2197610;80;20108;-58
2022/09/13 07:01:13;;;;;;;;;;;;;;;15.35;100.00;98622.43;2196226;81;20510;-58
2022/09/13 07:04:14;;;;;;;;;;;;;;;15.46;100.00;98621.54;2240434;79;20083;-58
2022/09/13 07:07:16;;;;;;;;;;;;;;;15.53;100.00;98625.80;2249470;78;20101;-57
2022/09/13 07:10:18;;;;;;;;;;;;;;;15.77;100.00;98624.20;2196101;80;20457;-56
2022/09/13 07:13:19;;;;;;;;;;;;;;;15.91;100.00;98627.02;2247135;79;20107;-57
2022/09/13 07:16:21;;;;;;;;;;;;;;;15.99;100.00;98627.67;2243289;79;20125;-58
2022/09/13 07:19:23;;;;;;;;;;;;;;;16.00;100.00;98616.13;2229242;79;20408;-58
2022/09/13 07:22:26;;;;;;;;;;;;;;;16.11;100.00;98620.83;2245848;78;20099;-58
2022/09/13 07:25:28;;;;;;;;;;;;;;;16.32;100.00;98613.33;2244868;78;20105;-58
2022/09/13 07:28:29;;;;;;;;;;;;;;;16.67;100.00;98613.80;2246795;78;20149;-58
2022/09/13 07:31:31;;;;;;;;;;;;;;;16.92;100.00;98623.04;2245907;78;20226;-58
2022/09/13 07:34:32;;;;;;;;;;;;;;;16.68;100.00;98614.99;2243326;78;20146;-57
2022/09/13 07:37:34;;;;;;;;;;;;;;;16.71;100.00;98609.91;2245554;78;20469;-58
2022/09/13 07:40:36;;;;;;;;;;;;;;;16.72;100.00;98616.86;2238717;78;20095;-57
2022/09/13 07:43:38;;;;;;;;;;;;;;;16.60;100.00;98619.63;2243471;79;20109;-57
2022/09/13 07:46:40;;;;;;;;;;;;;;;16.64;100.00;98612.27;2243235;78;20487;-59
2022/09/13 07:49:41;;;;;;;;;;;;;;;16.84;100.00;98620.20;2243492;78;20114;-57
2022/09/13 07:52:43;;;;;;;;;;;;;;;17.20;100.00;98610.77;2247120;78;20099;-58
2022/09/13 07:55:44;;;;;;;;;;;;;;;17.60;100.00;98610.22;2243023;78;20154;-58
2022/09/13 07:58:46;;;;;;;;;;;;;;;17.67;100.00;98607.34;2241789;78;20101;-58
2022/09/13 08:01:48;;;;;;;;;;;;;;;17.74;100.00;98608.91;2245406;78;20126;-59
2022/09/13 08:04:50;;;;;;;;;;;;;;;17.76;100.00;98613.59;2243924;79;20172;-58
2022/09/13 08:07:51;;;;;;;;;;;;;;;17.86;100.00;98605.58;2247047;78;20188;-58
2022/09/13 08:10:53;;;;;;;;;;;;;;;18.03;100.00;98598.70;2244385;78;20388;-58
2022/09/13 08:13:54;;;;;;;;;;;;;;;18.09;100.00;98598.14;2244251;78;20158;-59
2022/09/13 08:16:55;;;;;;;;;;;;;;;18.25;100.00;98595.66;2242757;79;20173;-58
2022/09/13 08:19:57;;;;;;;;;;;;;;;18.65;100.00;98592.28;2220109;78;20087;-58
2022/09/13 08:22:59;;;;;;;;;;;;;;;19.01;100.00;98586.98;2239529;78;20124;-58
2022/09/13 08:26:01;;;;;;;;;;;;;;;19.36;100.00;98582.59;2243023;78;20399;-59
2022/09/13 08:29:03;;;;;;;;;;;;;;;19.65;100.00;98576.97;2242562;78;20216;-58
2022/09/13 08:32:05;;;;;;;;;;;;;;;19.76;100.00;98575.03;2239304;79;20113;-58
2022/09/13 08:35:06;;;;;;;;;;;;;;;19.72;100.00;98571.83;2241421;79;20394;-59
2022/09/13 08:38:08;;;;;;;;;;;;;;;19.86;100.00;98564.61;2218839;78;20106;-59
2022/09/13 08:41:09;;;;;;;;;;;;;;;20.03;100.00;98565.52;2244025;78;20094;-59
2022/09/13 08:44:10;;;;;;;;;;;;;;;20.13;100.00;98565.40;2245283;78;20106;-59
2022/09/13 08:47:12;;;;;;;;;;;;;;;20.38;100.00;98566.80;2241572;77;20156;-58
2022/09/13 08:50:14;;;;;;;;;;;;;;;20.35;100.00;98570.61;2244362;78;20468;-58
2022/09/13 08:53:18;;;;;;;;;;;;;;;20.54;100.00;98571.32;2217450;79;20122;-59
2022/09/13 08:56:19;;;;;;;;;;;;;;;20.63;100.00;98569.02;2237971;78;20205;-59
2022/09/13 08:59:21;;;;;;;;;;;;;;;20.67;99.10;98569.55;2239193;78;20139;-58
2022/09/13 09:02:23;;;;;;;;;;;;;;;20.84;100.00;98569.06;2243817;78;20138;-57
2022/09/13 09:05:24;;;;;;;;;;;;;;;21.03;100.00;98562.09;2243546;79;20396;-56
2022/09/13 09:08:26;;;;;;;;;;;;;;;21.07;96.44;98567.91;2242972;78;20094;-58
2022/09/13 09:11:28;;;;;;;;;;;;;;;20.99;95.17;98573.22;2235256;78;20133;-59
2022/09/13 09:14:30;;;;;;;;;;;;;;;21.02;92.74;98561.74;2245223;78;20168;-60
2022/09/13 09:17:32;;;;;;;;;;;;;;;21.00;87.06;98561.57;2242823;79;20117;-58
2022/09/13 09:20:33;;;;;;;;;;;;;;;20.76;84.90;98559.25;2241458;79;20222;-59
2022/09/13 09:23:35;;;;;;;;;;;;;;;20.76;94.75;98554.73;2244464;78;20090;-59
2022/09/13 09:26:36;;;;;;;;;;;;;;;20.85;90.83;98554.75;2243416;78;20102;-58
2022/09/13 09:29:42;;;;;;;;;;;;;;;20.71;87.35;98558.38;2244936;79;20409;-59
2022/09/13 09:32:41;;;;;;;;;;;;;;;20.53;87.95;98554.52;2221090;79;20122;-58
2022/09/13 09:35:44;;;;;;;;;;;;;;;20.16;84.26;98554.42;2243869;79;20388;-59
2022/09/13 09:38:45;;;;;;;;;;;;;;;19.72;88.91;98547.89;2247670;78;20156;-59
2022/09/13 09:41:47;;;;;;;;;;;;;;;19.89;89.58;98541.67;2245684;78;20130;-59
2022/09/13 09:44:49;;;;;;;;;;;;;;;20.16;91.54;98535.78;2243306;79;20393;-59
2022/09/13 09:47:50;;;;;;;;;;;;;;;20.63;86.74;98526.88;2246871;78;20130;-59
2022/09/13 09:50:52;;;;;;;;;;;;;;;21.11;84.98;98523.91;2245803;78;20409;-59
2022/09/13 09:53:54;;;;;;;;;;;;;;;21.42;79.39;98514.69;2198682;80;20113;-58
2022/09/13 09:56:56;;;;;;;;;;;;;;;21.63;82.06;98511.98;2243599;79;20129;-60
2022/09/13 09:59:57;;;;;;;;;;;;;;;21.74;81.00;98518.79;2248626;78;20440;-59
2022/09/13 10:02:59;;;;;;;;;;;;;;;21.84;72.81;98517.23;2198924;81;20181;-58
2022/09/13 10:06:01;;;;;;;;;;;;;;;21.73;78.96;98503.27;2199746;80;20184;-59
2022/09/13 10:09:03;;;;;;;;;;;;;;;21.91;78.67;98503.52;2199830;80;20092;-60
2022/09/13 10:12:05;;;;;;;;;;;;;;;21.92;74.52;98498.03;2250083;78;20129;-58
2022/09/13 10:15:06;;;;;;;;;;;;;;;21.69;74.12;98499.78;2209483;80;20114;-58
2022/09/13 10:18:08;;;;;;;;;;;;;;;21.52;71.76;98498.52;2193407;80;20422;-59
2022/09/13 10:21:10;;;;;;;;;;;;;;;21.07;65.21;98491.41;2199422;79;20187;-59
2022/09/13 10:24:12;;;;;;;;;;;;;;;20.99;67.85;98486.59;2206955;80;20181;-59
2022/09/13 10:27:13;;;;;;;;;;;;;;;20.76;65.71;98496.11;2202259;80;20391;-59
2022/09/13 10:30:15;;;;;;;;;;;;;;;20.53;69.46;98491.91;2205576;80;20120;-59
2022/09/13 10:33:16;;;;;;;;;;;;;;;20.74;74.45;98478.10;2206654;80;20132;-56
2022/09/13 10:36:18;;;;;;;;;;;;;;;21.11;74.64;98484.73;2205498;80;20097;-58
2022/09/13 10:39:20;;;;;;;;;;;;;;;21.36;74.61;98482.00;2203437;80;20113;-57
2022/09/13 10:42:22;;;;;;;;;;;;;;;21.76;69.64;98483.41;2197020;80;20089;-58
2022/09/13 10:45:24;;;;;;;;;;;;;;;21.86;65.31;98489.36;2209647;79;20411;-60
2022/09/13 10:48:26;;;;;;;;;;;;;;;21.37;68.70;98495.68;2197348;80;20111;-59
2022/09/13 10:51:27;;;;;;;;;;;;;;;21.23;71.68;98483.90;2208939;80;20184;-59
2022/09/13 10:54:29;;;;;;;;;;;;;;;21.25;71.58;98483.22;2205471;80;20182;-57
2022/09/13 10:57:31;;;;;;;;;;;;;;;21.37;70.99;98483.67;2201194;80;20151;-57
2022/09/13 11:00:35;;;;;;;;;;;;;;;21.17;70.22;98473.07;2204517;80;20125;-59
2022/09/13 11:03:36;;;;;;;;;;;;;;;21.28;72.79;98478.05;2180150;80;20103;-59
2022/09/13 11:06:37;;;;;;;;;;;;;;;21.30;68.08;98466.70;2246211;78;20381;-59
2022/09/13 11:09:39;;;;;;;;;;;;;;;21.24;73.67;98466.88;2199597;80;20169;-57
2022/09/13 11:12:41;;;;;;;;;;;;;;;21.29;73.60;98463.20;2249572;78;20177;-59
2022/09/13 11:15:42;;;;;;;;;;;;;;;21.44;72.66;98463.83;2248015;78;20200;-58
2022/09/13 11:18:44;;;;;;;;;;;;;;;21.71;75.13;98452.42;2199640;80;20215;-58
2022/09/13 11:21:46;;;;;;;;;;;;;;;22.03;71.50;98448.72;2200005;80;20371;-59
2022/09/13 11:24:47;;;;;;;;;;;;;;;22.56;73.13;98441.38;2199850;79;20132;-59
2022/09/13 11:27:49;;;;;;;;;;;;;;;22.62;70.19;98439.31;2207196;80;20124;-59
2022/09/13 11:30:50;;;;;;;;;;;;;;;22.65;70.03;98428.26;2190531;81;20119;-59
2022/09/13 11:33:52;;;;;;;;;;;;;;;22.53;61.44;98436.37;2208471;80;20134;-59
2022/09/13 11:36:53;;;;;;;;;;;;;;;22.13;68.39;98429.81;2237742;78;20387;-59
2022/09/13 11:39:55;;;;;;;;;;;;;;;22.40;68.09;98428.47;2242844;78;20102;-59
2022/09/13 11:42:56;;;;;;;;;;;;;;;22.88;67.82;98418.02;2242231;79;20094;-59
2022/09/13 11:45:58;;;;;;;;;;;;;;;23.25;63.01;98409.64;2244175;78;20094;-59
2022/09/13 11:48:59;;;;;;;;;;;;;;;23.37;63.04;98400.63;2241416;79;20104;-59
2022/09/13 11:52:01;;;;;;;;;;;;;;;23.04;60.86;98396.96;2236941;79;20455;-59
2022/09/13 11:55:02;;;;;;;;;;;;;;;22.49;62.16;98397.98;2238832;78;20195;-60
2022/09/13 11:58:04;;;;;;;;;;;;;;;22.12;64.39;98397.42;2241327;78;20118;-59
2022/09/13 12:01:05;;;;;;;;;;;;;;;22.07;66.52;98386.47;2239648;79;20149;-60
2022/09/13 12:04:07;;;;;;;;;;;;;;;21.97;61.58;98386.70;2237168;78;20115;-59
2022/09/13 12:07:08;;;;;;;;;;;;;;;22.09;62.89;98393.27;2238789;78;20106;-59
2022/09/13 12:10:09;;;;;;;;;;;;;;;22.22;65.21;98368.63;2240909;78;20094;-59
2022/09/13 12:13:11;;;;;;;;;;;;;;;22.40;64.78;98357.67;2238759;79;20390;-59
2022/09/13 12:16:13;;;;;;;;;;;;;;;22.39;62.87;98361.34;2240278;78;20174;-58
2022/09/13 12:19:14;;;;;;;;;;;;;;;22.25;66.78;98362.11;2242325;79;20102;-59
2022/09/13 12:22:16;;;;;;;;;;;;;;;22.20;67.69;98364.50;2239582;78;20095;-59
2022/09/13 12:25:17;;;;;;;;;;;;;;;22.02;67.27;98358.94;2238696;78;20156;-58
2022/09/13 12:28:18;;;;;;;;;;;;;;;21.92;68.00;98357.87;2243231;78;20393;-59
2022/09/13 12:31:20;;;;;;;;;;;;;;;21.83;69.13;98351.42;2242215;78;20124;-59
2022/09/13 12:34:22;;;;;;;;;;;;;;;21.77;63.76;98352.95;2238602;78;20095;-59
2022/09/13 12:37:23;;;;;;;;;;;;;;;21.41;64.98;98352.95;2242387;78;20102;-57
2022/09/13 12:40:25;;;;;;;;;;;;;;;21.14;69.22;98350.77;2240480;78;20106;-57
2022/09/13 12:43:27;;;;;;;;;;;;;;;21.37;69.00;98350.30;2242707;79;20099;-57
2022/09/13 12:46:29;;;;;;;;;;;;;;;21.50;70.23;98348.92;2240751;78;20094;-57
2022/09/13 12:49:30;;;;;;;;;;;;;;;21.62;70.89;98346.20;2226133;79;20129;-57
2022/09/13 12:52:31;;;;;;;;;;;;;;;21.84;70.15;98351.73;2239817;78;20405;-56
2022/09/13 12:55:34;;;;;;;;;;;;;;;22.01;68.84;98343.10;2241551;79;20124;-59
2022/09/13 12:58:36;;;;;;;;;;;;;;;22.00;68.66;98343.62;2233624;78;20173;-58
2022/09/13 13:01:38;;;;;;;;;;;;;;;21.89;67.03;98348.86;2238643;79;20083;-59
2022/09/13 13:04:39;;;;;;;;;;;;;;;21.58;65.99;98345.73;2240926;78;20130;-59
2022/09/13 13:07:45;;;;;;;;;;;;;;;21.45;69.83;98319.59;2240153;79;20134;-59
2022/09/13 13:10:44;;;;;;;;;;;;;;;21.48;67.85;98309.08;2223942;79;20109;-59
2022/09/13 13:13:46;;;;;;;;;;;;;;;21.53;71.13;98303.24;2240713;79;20121;-59
2022/09/13 13:16:48;;;;;;;;;;;;;;;22.11;70.00;98310.30;2239978;79;20384;-59
2022/09/13 13:19:50;;;;;;;;;;;;;;;22.65;67.12;98298.63;2240046;78;20105;-59
2022/09/13 13:22:52;;;;;;;;;;;;;;;23.16;64.95;98296.56;2238370;79;20091;-59
2022/09/13 13:25:53;;;;;;;;;;;;;;;23.61;64.55;98293.23;2239117;79;20095;-59
2022/09/13 13:28:55;;;;;;;;;;;;;;;23.89;58.32;98284.98;2247132;79;20105;-59
2022/09/13 13:31:56;;;;;;;;;;;;;;;24.14;62.24;98276.84;2244908;78;20106;-59
2022/09/13 13:34:58;;;;;;;;;;;;;;;23.96;60.74;98269.27;2241168;78;20413;-58
2022/09/13 13:38:00;;;;;;;;;;;;;;;23.63;60.13;98268.95;2240114;79;20139;-58
2022/09/13 13:41:02;;;;;;;;;;;;;;;23.27;60.40;98272.50;2239801;78;20094;-57
2022/09/13 13:44:04;;;;;;;;;;;;;;;23.00;62.42;98268.13;2239222;78;20436;-59
2022/09/13 13:47:05;;;;;;;;;;;;;;;22.61;62.66;98265.27;2237302;78;20183;-59
2022/09/13 13:50:07;;;;;;;;;;;;;;;22.38;63.32;98274.70;2242996;78;20114;-59
2022/09/13 13:53:09;;;;;;;;;;;;;;;22.16;63.57;98262.53;2236066;78;20181;-60
2022/09/13 13:56:10;;;;;;;;;;;;;;;21.98;63.87;98265.55;2241817;78;20148;-60
2022/09/13 13:59:11;;;;;;;;;;;;;;;21.95;66.10;98267.22;2242326;79;20449;-59
2022/09/13 14:02:13;;;;;;;;;;;;;;;22.15;66.35;98267.54;2241888;79;20138;-60
2022/09/13 14:05:14;;;;;;;;;;;;;;;22.19;66.12;98260.83;2240742;78;20157;-59
2022/09/13 14:08:16;;;;;;;;;;;;;;;22.27;67.89;98251.41;2237130;78;20123;-60
2022/09/13 14:11:18;;;;;;;;;;;;;;;22.46;62.09;98251.92;2243107;78;20218;-58
2022/09/13 14:14:19;;;;;;;;;;;;;;;22.81;64.39;98242.81;2241559;78;20122;-58
2022/09/13 14:17:21;;;;;;;;;;;;;;;22.77;62.66;98239.70;2231717;79;20203;-59
2022/09/13 14:20:22;;;;;;;;;;;;;;;22.85;63.33;98237.42;2238456;79;20117;-57
2022/09/13 14:23:24;;;;;;;;;;;;;;;22.29;62.39;98244.55;2239885;78;20400;-57
2022/09/13 14:26:26;;;;;;;;;;;;;;;22.05;62.95;98235.78;2240377;78;20146;-57
2022/09/13 14:29:27;;;;;;;;;;;;;;;21.85;64.93;98239.95;2239660;78;20095;-59
2022/09/13 14:32:29;;;;;;;;;;;;;;;21.58;66.35;98238.19;2246973;78;20098;-59
2022/09/13 14:35:30;;;;;;;;;;;;;;;21.20;67.18;98232.73;2245314;78;20165;-59
2022/09/13 14:38:34;;;;;;;;;;;;;;;21.14;68.50;98226.78;2222554;79;20604;-58
2022/09/13 14:41:35;;;;;;;;;;;;;;;21.13;69.32;98227.77;2244092;78;20094;-57
2022/09/13 14:44:36;;;;;;;;;;;;;;;21.13;70.10;98222.44;2237810;78;20154;-56
2022/09/13 14:47:38;;;;;;;;;;;;;;;21.07;70.77;98217.30;2246046;79;20090;-57
2022/09/13 14:50:39;;;;;;;;;;;;;;;20.77;71.19;98217.13;2222773;79;20104;-59
2022/09/13 14:53:41;;;;;;;;;;;;;;;20.47;72.46;98220.87;2224606;78;20180;-59
2022/09/13 14:56:42;;;;;;;;;;;;;;;20.38;73.86;98223.24;2245024;78;20444;-59
2022/09/13 14:59:44;;;;;;;;;;;;;;;20.24;75.54;98215.45;2253002;79;20143;-59
2022/09/13 15:02:45;;;;;;;;;;;;;;;20.20;76.44;98212.78;2233246;79;20094;-59
2022/09/13 15:05:47;;;;;;;;;;;;;;;20.10;76.63;98213.48;2239534;79;20174;-60
2022/09/13 15:08:48;;;;;;;;;;;;;;;19.95;77.91;98212.02;2239340;79;20082;-59
2022/09/13 15:11:50;;;;;;;;;;;;;;;19.83;78.42;98214.20;2238542;79;20429;-58
2022/09/13 15:14:51;;;;;;;;;;;;;;;19.76;79.32;98210.01;2241563;79;20114;-59
2022/09/13 15:17:53;;;;;;;;;;;;;;;19.74;80.75;98220.82;2245039;78;20114;-59
2022/09/13 15:20:55;;;;;;;;;;;;;;;19.67;79.82;98213.69;2240400;78;20139;-59
2022/09/13 15:23:57;;;;;;;;;;;;;;;19.64;81.65;98210.85;2241440;79;20094;-58
2022/09/13 15:26:58;;;;;;;;;;;;;;;19.56;81.75;98206.85;2238075;79;20102;-59
2022/09/13 15:30:01;;;;;;;;;;;;;;;19.52;84.25;98205.52;2243440;78;20106;-59
2022/09/13 15:33:04;;;;;;;;;;;;;;;19.49;84.11;98207.19;2236100;78;20178;-59
2022/09/13 15:36:05;;;;;;;;;;;;;;;19.44;85.23;98206.84;2228538;78;20096;-59
2022/09/13 15:39:07;;;;;;;;;;;;;;;19.42;85.86;98202.20;2238937;78;20106;-58
2022/09/13 15:42:09;;;;;;;;;;;;;;;19.43;87.43;98199.38;2240420;78;20095;-58